Time;durP1;ratioP1;P1;durP2;ratioP2;P2;SDS_P1;SDS_P2;PMS_P1;PMS_P2;Temp;Humidity;BMP_temperature;BMP_pressure;BME280_temperature;BME280_humidity;BME280_pressure;Samples;Min_cycle;Max_cycle;Signal;HPM_P1;HPM_P2
2022/08/06 00:02:34;;;;;;;3.30;1.85;;;;;;;;;;5092629;28;20102;-70
2022/08/06 00:05:02;;;;;;;3.47;1.70;;;;;;;;;;5092455;28;20049;-69
2022/08/06 00:07:31;;;;;;;2.17;1.40;;;;;;;;;;5090605;28;20056;-69
2022/08/06 00:10:10;;;;;;;2.65;1.10;;;;;;;;;;5092433;28;20187;-70
2022/08/06 00:12:39;;;;;;;6.25;1.30;;;;;;;;;;5094368;28;20094;-69
2022/08/06 00:15:06;;;;;;;2.17;1.23;;;;;;;;;;5090036;28;20056;-70
2022/08/06 00:17:44;;;;;;;3.28;1.35;;;;;;;;;;5090187;28;20143;-70
2022/08/06 00:20:13;;;;;;;4.20;1.13;;;;;;;;;;5090013;28;20052;-70
2022/08/06 00:22:56;;;;;;;2.85;1.17;;;;;;;;;;5091524;28;20052;-70
2022/08/06 00:25:22;;;;;;;7.82;1.52;;;;;;;;;;5090869;28;20530;-71
2022/08/06 00:27:51;;;;;;;2.25;1.20;;;;;;;;;;5091889;28;20048;-70
2022/08/06 00:30:18;;;;;;;1.95;0.90;;;;;;;;;;5081503;28;20111;-70
2022/08/06 00:32:48;;;;;;;2.25;1.02;;;;;;;;;;5081422;28;20056;-70
2022/08/06 00:35:18;;;;;;;3.22;1.10;;;;;;;;;;5083237;28;20055;-71
2022/08/06 00:37:47;;;;;;;2.17;1.20;;;;;;;;;;5092719;28;20056;-70
2022/08/06 00:40:25;;;;;;;3.05;1.38;;;;;;;;;;5093734;28;20512;-70
2022/08/06 00:42:55;;;;;;;4.03;1.42;;;;;;;;;;5093384;28;20054;-70
2022/08/06 00:45:21;;;;;;;4.55;1.35;;;;;;;;;;5093433;28;20087;-70
2022/08/06 00:47:50;;;;;;;3.58;1.13;;;;;;;;;;5072918;28;20558;-70
2022/08/06 00:50:29;;;;;;;2.45;1.13;;;;;;;;;;5073463;28;20516;-71
2022/08/06 00:52:55;;;;;;;1.83;1.05;;;;;;;;;;5079270;28;20044;-71
2022/08/06 00:55:21;;;;;;;6.50;1.25;;;;;;;;;;5081388;28;20059;-71
2022/08/06 00:57:57;;;;;;;3.08;1.20;;;;;;;;;;5106230;28;20555;-70
2022/08/06 01:00:24;;;;;;;1.27;1.02;;;;;;;;;;5090670;28;20055;-70
2022/08/06 01:02:55;;;;;;;5.32;1.95;;;;;;;;;;5091989;28;20048;-70
2022/08/06 01:05:22;;;;;;;4.10;1.00;;;;;;;;;;5092681;28;20062;-70
2022/08/06 01:08:08;;;;;;;4.63;1.30;;;;;;;;;;5091748;28;20536;-71
2022/08/06 01:10:35;;;;;;;5.43;2.03;;;;;;;;;;5091670;28;20094;-70
2022/08/06 01:13:08;;;;;;;4.18;1.35;;;;;;;;;;5092202;28;20060;-71
2022/08/06 01:16:03;;;;;;;1.70;1.17;;;;;;;;;;5091902;28;20055;-70
2022/08/06 01:18:38;;;;;;;2.72;1.27;;;;;;;;;;5091957;28;20660;-70
2022/08/06 01:21:21;;;;;;;4.68;1.63;;;;;;;;;;5078520;28;20053;-69
2022/08/06 01:24:08;;;;;;;2.42;1.45;;;;;;;;;;5085383;28;20048;-70
2022/08/06 01:26:38;;;;;;;3.38;1.48;;;;;;;;;;5091244;28;20057;-70
2022/08/06 01:29:23;;;;;;;3.60;1.67;;;;;;;;;;5088871;28;20072;-70
2022/08/06 01:32:06;;;;;;;5.90;1.20;;;;;;;;;;5091029;28;20053;-70
2022/08/06 01:34:34;;;;;;;5.20;1.50;;;;;;;;;;5097701;28;20094;-70
2022/08/06 01:37:14;;;;;;;2.28;1.45;;;;;;;;;;5090741;28;20052;-69
2022/08/06 01:39:42;;;;;;;6.55;1.58;;;;;;;;;;5091603;28;20045;-70
2022/08/06 01:42:29;;;;;;;4.13;1.30;;;;;;;;;;5071689;28;20064;-70
2022/08/06 01:45:03;;;;;;;3.75;1.17;;;;;;;;;;5090455;28;20068;-70
2022/08/06 01:47:31;;;;;;;2.85;1.30;;;;;;;;;;5090130;28;20178;-69
2022/08/06 01:50:19;;;;;;;4.25;1.63;;;;;;;;;;5091469;28;20057;-69
2022/08/06 01:52:54;;;;;;;1.98;1.35;;;;;;;;;;5091105;28;20072;-70
2022/08/06 01:55:27;;;;;;;5.45;1.98;;;;;;;;;;5090366;28;20052;-69
2022/08/06 01:58:15;;;;;;;2.85;1.33;;;;;;;;;;5090090;28;20053;-69
2022/08/06 02:00:52;;;;;;;3.20;1.40;;;;;;;;;;5089734;28;20594;-69
2022/08/06 02:03:29;;;;;;;3.17;1.23;;;;;;;;;;5076911;28;20061;-69
2022/08/06 02:06:24;;;;;;;2.47;1.40;;;;;;;;;;5084064;28;20056;-69
2022/08/06 02:08:56;;;;;;;1.67;1.15;;;;;;;;;;5091828;28;20063;-69
2022/08/06 02:11:23;;;;;;;5.32;1.85;;;;;;;;;;5095109;27;20080;-70
2022/08/06 02:14:12;;;;;;;2.63;1.50;;;;;;;;;;5091229;28;20056;-69
2022/08/06 02:16:41;;;;;;;6.65;1.60;;;;;;;;;;5089087;28;20053;-70
2022/08/06 02:19:10;;;;;;;3.30;1.60;;;;;;;;;;5090155;28;20048;-69
2022/08/06 02:21:42;;;;;;;1.90;1.50;;;;;;;;;;5091481;28;20052;-69
2022/08/06 02:24:16;;;;;;;4.20;1.60;;;;;;;;;;5090432;28;20522;-69
2022/08/06 02:26:42;;;;;;;3.70;1.27;;;;;;;;;;5091140;28;20086;-70
2022/08/06 02:29:11;;;;;;;3.03;1.70;;;;;;;;;;5089510;28;20075;-69
2022/08/06 02:31:40;;;;;;;3.65;1.60;;;;;;;;;;5093125;28;20076;-69
2022/08/06 02:34:18;;;;;;;1.90;1.45;;;;;;;;;;5093771;28;20056;-69
2022/08/06 02:37:10;;;;;;;1.20;1.05;;;;;;;;;;5085183;28;20110;-69
2022/08/06 02:39:41;;;;;;;2.00;1.48;;;;;;;;;;5092134;28;20424;-69
2022/08/06 02:42:20;;;;;;;4.90;1.65;;;;;;;;;;5094093;28;20527;-69
2022/08/06 02:44:46;;;;;;;3.30;1.50;;;;;;;;;;5094105;28;20591;-69
2022/08/06 02:47:22;;;;;;;5.75;1.67;;;;;;;;;;5093361;28;20059;-69
2022/08/06 02:50:11;;;;;;;6.22;1.85;;;;;;;;;;5105340;28;20048;-69
2022/08/06 02:52:51;;;;;;;3.08;1.50;;;;;;;;;;5094484;27;20051;-69
2022/08/06 02:55:25;;;;;;;2.05;1.17;;;;;;;;;;5092928;28;20056;-69
2022/08/06 02:58:05;;;;;;;4.18;1.50;;;;;;;;;;5093221;28;20060;-69
2022/08/06 03:00:35;;;;;;;3.33;1.27;;;;;;;;;;5098059;28;20129;-69
2022/08/06 03:03:04;;;;;;;5.50;1.45;;;;;;;;;;5094133;28;20492;-69
2022/08/06 03:05:47;;;;;;;3.80;1.80;;;;;;;;;;5079635;28;20057;-69
2022/08/06 03:08:23;;;;;;;3.65;1.60;;;;;;;;;;5092764;28;20503;-69
2022/08/06 03:10:53;;;;;;;3.30;1.70;;;;;;;;;;5090432;28;20475;-69
2022/08/06 03:13:21;;;;;;;3.70;1.67;;;;;;;;;;5092021;28;20590;-68
2022/08/06 03:15:49;;;;;;;2.25;1.30;;;;;;;;;;5093615;28;20144;-69
2022/08/06 03:18:27;;;;;;;6.38;1.45;;;;;;;;;;5092998;28;20078;-68
2022/08/06 03:20:54;;;;;;;5.50;1.50;;;;;;;;;;5089888;28;20056;-69
2022/08/06 03:23:23;;;;;;;2.45;1.38;;;;;;;;;;5092849;28;20063;-69
2022/08/06 03:25:53;;;;;;;1.70;1.10;;;;;;;;;;5098783;28;20138;-69
2022/08/06 03:28:20;;;;;;;4.00;1.52;;;;;;;;;;5095646;27;20044;-70
2022/08/06 03:30:48;;;;;;;4.70;1.50;;;;;;;;;;5091952;28;20056;-69
2022/08/06 03:33:21;;;;;;;5.88;2.05;;;;;;;;;;5092438;28;20049;-69
2022/08/06 03:36:08;;;;;;;2.58;1.15;;;;;;;;;;5092880;28;21018;-69
2022/08/06 03:38:38;;;;;;;4.32;1.30;;;;;;;;;;5092252;28;20056;-69
2022/08/06 03:41:04;;;;;;;7.60;1.70;;;;;;;;;;5093383;28;20052;-69
2022/08/06 03:43:33;;;;;;;6.05;2.08;;;;;;;;;;5093050;28;20067;-69
2022/08/06 03:46:22;;;;;;;2.15;1.20;;;;;;;;;;5096255;27;20053;-69
2022/08/06 03:48:52;;;;;;;2.60;1.33;;;;;;;;;;5092873;28;20099;-69
2022/08/06 03:51:20;;;;;;;2.72;1.45;;;;;;;;;;5092171;28;20446;-69
2022/08/06 03:54:07;;;;;;;3.25;1.33;;;;;;;;;;5073108;28;20068;-68
2022/08/06 03:56:35;;;;;;;3.25;1.85;;;;;;;;;;5089297;28;20182;-69
2022/08/06 03:59:04;;;;;;;4.13;1.48;;;;;;;;;;5098151;28;20062;-69
2022/08/06 04:01:40;;;;;;;6.32;1.58;;;;;;;;;;5101030;27;20053;-69
2022/08/06 04:04:17;;;;;;;3.25;1.85;;;;;;;;;;5092481;28;20052;-68
2022/08/06 04:06:54;;;;;;;5.82;1.77;;;;;;;;;;5092284;28;20067;-68
2022/08/06 04:09:21;;;;;;;3.55;1.58;;;;;;;;;;5090135;28;20897;-69
2022/08/06 04:12:08;;;;;;;5.00;1.38;;;;;;;;;;5092707;28;20096;-69
2022/08/06 04:14:55;;;;;;;1.67;1.25;;;;;;;;;;5092357;28;20080;-69
2022/08/06 04:17:22;;;;;;;2.38;1.33;;;;;;;;;;5091887;28;20484;-69
2022/08/06 04:19:48;;;;;;;6.40;2.10;;;;;;;;;;5091989;28;20431;-68
2022/08/06 04:22:20;;;;;;;1.48;1.27;;;;;;;;;;5091585;28;20139;-68
2022/08/06 04:25:07;;;;;;;9.95;1.73;;;;;;;;;;5073072;28;20539;-70
2022/08/06 04:27:40;;;;;;;5.13;1.55;;;;;;;;;;5090331;28;20052;-70
2022/08/06 04:30:18;;;;;;;9.50;2.55;;;;;;;;;;5091217;28;20060;-70
2022/08/06 04:32:45;;;;;;;4.88;1.63;;;;;;;;;;5092520;28;20370;-70
2022/08/06 04:35:27;;;;;;;5.40;1.65;;;;;;;;;;5092326;28;20067;-69
2022/08/06 04:38:15;;;;;;;6.85;1.45;;;;;;;;;;5092217;28;20498;-70
2022/08/06 04:40:42;;;;;;;4.50;1.30;;;;;;;;;;5093650;28;20053;-71
2022/08/06 04:43:19;;;;;;;7.78;2.00;;;;;;;;;;5093105;28;20559;-70
2022/08/06 04:45:45;;;;;;;2.65;1.70;;;;;;;;;;5092321;28;20059;-70
2022/08/06 04:48:33;;;;;;;3.42;1.63;;;;;;;;;;5092229;28;20519;-70
2022/08/06 04:51:12;;;;;;;7.18;2.40;;;;;;;;;;5091691;28;20056;-71
2022/08/06 04:53:59;;;;;;;6.43;2.33;;;;;;;;;;5091364;28;20058;-69
2022/08/06 04:56:25;;;;;;;3.33;1.90;;;;;;;;;;5090988;28;20952;-71
2022/08/06 04:59:02;;;;;;;5.95;1.48;;;;;;;;;;5091296;28;20072;-71
2022/08/06 05:01:29;;;;;;;3.95;1.73;;;;;;;;;;5091991;28;20049;-70
2022/08/06 05:04:06;;;;;;;1.73;1.25;;;;;;;;;;5095396;28;20052;-70
2022/08/06 05:06:46;;;;;;;4.88;1.60;;;;;;;;;;5096340;27;20053;-70
2022/08/06 05:09:16;;;;;;;8.30;2.10;;;;;;;;;;5084839;28;20141;-70
2022/08/06 05:11:59;;;;;;;8.13;2.22;;;;;;;;;;5092200;28;20048;-70
2022/08/06 05:14:31;;;;;;;2.55;1.33;;;;;;;;;;5091460;28;20061;-70
2022/08/06 05:17:01;;;;;;;3.72;1.95;;;;;;;;;;5091900;28;20048;-70
2022/08/06 05:19:38;;;;;;;2.75;1.48;;;;;;;;;;5090778;28;20060;-70
2022/08/06 05:22:05;;;;;;;4.05;1.67;;;;;;;;;;5091648;28;20055;-70
2022/08/06 05:24:38;;;;;;;2.78;1.50;;;;;;;;;;5092225;28;20064;-70
2022/08/06 05:27:25;;;;;;;14.05;1.90;;;;;;;;;;5087272;28;20159;-70
2022/08/06 05:30:11;;;;;;;3.67;1.42;;;;;;;;;;5094722;28;20040;-71
2022/08/06 05:32:44;;;;;;;4.10;1.92;;;;;;;;;;5096550;28;20053;-71
2022/08/06 05:35:11;;;;;;;2.65;1.17;;;;;;;;;;5090861;28;20147;-71
2022/08/06 05:37:43;;;;;;;3.30;1.58;;;;;;;;;;5091140;28;20122;-70
2022/08/06 05:40:33;;;;;;;3.38;1.40;;;;;;;;;;5091448;28;20488;-70
2022/08/06 05:43:18;;;;;;;3.47;1.10;;;;;;;;;;5075599;28;20130;-70
2022/08/06 05:45:46;;;;;;;1.30;1.20;;;;;;;;;;5100308;28;20117;-69
2022/08/06 05:48:13;;;;;;;3.13;1.13;;;;;;;;;;5092628;27;21051;-69
2022/08/06 05:50:44;;;;;;;2.58;1.17;;;;;;;;;;5089310;28;20059;-69
2022/08/06 05:53:12;;;;;;;1.73;1.40;;;;;;;;;;5090553;28;20052;-70
2022/08/06 05:56:01;;;;;;;4.10;1.20;;;;;;;;;;5089602;28;20521;-70
2022/08/06 05:58:28;;;;;;;1.20;0.93;;;;;;;;;;5090686;28;20052;-70
2022/08/06 06:00:56;;;;;;;1.55;0.88;;;;;;;;;;5090133;27;20084;-70
2022/08/06 06:03:23;;;;;;;1.95;1.02;;;;;;;;;;5090352;28;20056;-68
2022/08/06 06:05:59;;;;;;;5.18;1.30;;;;;;;;;;5091846;28;20049;-69
2022/08/06 06:08:42;;;;;;;2.65;1.00;;;;;;;;;;5093473;28;20506;-70
2022/08/06 06:11:24;;;;;;;4.35;1.50;;;;;;;;;;5091969;28;20088;-71
2022/08/06 06:14:24;;;;;;;4.53;1.38;;;;;;;;;;5093535;28;20059;-69
2022/08/06 06:17:12;;;;;;;5.60;1.35;;;;;;;;;;5092987;28;20057;-69
2022/08/06 06:19:46;;;;;;;1.10;1.00;;;;;;;;;;5106778;28;20058;-69
2022/08/06 06:22:36;;;;;;;3.03;0.90;;;;;;;;;;5092855;28;20121;-69
2022/08/06 06:25:15;;;;;;;2.63;0.70;;;;;;;;;;5094479;28;20048;-69
2022/08/06 06:27:44;;;;;;;1.45;0.70;;;;;;;;;;5092961;28;20186;-70
2022/08/06 06:30:31;;;;;;;2.72;0.85;;;;;;;;;;5092669;28;20499;-69
2022/08/06 06:33:05;;;;;;;2.65;1.38;;;;;;;;;;5090720;28;20052;-70
2022/08/06 06:35:45;;;;;;;3.22;1.42;;;;;;;;;;5093760;28;20055;-70
2022/08/06 06:38:39;;;;;;;1.52;0.70;;;;;;;;;;5093349;28;20057;-69
2022/08/06 06:41:13;;;;;;;2.88;0.70;;;;;;;;;;5093152;28;20906;-69
2022/08/06 06:43:46;;;;;;;2.28;0.63;;;;;;;;;;5094481;28;20154;-69
2022/08/06 06:46:22;;;;;;;2.78;0.88;;;;;;;;;;5094382;28;20090;-69
2022/08/06 06:49:14;;;;;;;1.90;0.80;;;;;;;;;;5094710;28;20114;-69
2022/08/06 06:52:07;;;;;;;3.53;1.00;;;;;;;;;;5092164;28;20052;-68
2022/08/06 06:54:38;;;;;;;2.17;0.90;;;;;;;;;;5093775;28;20091;-69
2022/08/06 06:57:06;;;;;;;3.15;0.95;;;;;;;;;;5087396;28;20067;-69
2022/08/06 06:59:36;;;;;;;1.10;0.70;;;;;;;;;;5106558;28;20415;-69
2022/08/06 07:02:24;;;;;;;1.38;1.08;;;;;;;;;;5097920;28;20052;-69
2022/08/06 07:04:54;;;;;;;4.18;1.00;;;;;;;;;;5096669;27;20106;-69
2022/08/06 07:07:24;;;;;;;1.77;0.93;;;;;;;;;;5092073;28;20063;-69
2022/08/06 07:09:53;;;;;;;2.70;1.50;;;;;;;;;;5092620;28;20052;-69
2022/08/06 07:12:28;;;;;;;1.27;0.90;;;;;;;;;;5085836;28;20048;-69
2022/08/06 07:15:00;;;;;;;5.65;1.10;;;;;;;;;;5085805;28;20118;-69
2022/08/06 07:17:28;;;;;;;1.05;0.60;;;;;;;;;;5091740;28;20531;-69
2022/08/06 07:20:16;;;;;;;1.42;0.90;;;;;;;;;;5089021;28;20474;-70
2022/08/06 07:22:43;;;;;;;1.88;0.93;;;;;;;;;;5090549;28;20053;-69
2022/08/06 07:25:29;;;;;;;3.00;0.70;;;;;;;;;;5091848;28;20385;-69
2022/08/06 07:27:56;;;;;;;1.67;0.82;;;;;;;;;;5093088;28;20106;-70
2022/08/06 07:30:25;;;;;;;1.00;0.80;;;;;;;;;;5090412;28;20059;-70
2022/08/06 07:32:54;;;;;;;7.28;1.52;;;;;;;;;;5088139;28;20048;-69
2022/08/06 07:35:20;;;;;;;4.88;0.90;;;;;;;;;;5097791;28;20064;-69
2022/08/06 07:37:50;;;;;;;2.25;0.85;;;;;;;;;;5093327;27;20048;-70
2022/08/06 07:40:20;;;;;;;2.95;1.05;;;;;;;;;;5092340;28;20136;-69
2022/08/06 07:42:50;;;;;;;2.15;0.70;;;;;;;;;;5086469;28;20079;-69
2022/08/06 07:45:17;;;;;;;2.10;0.68;;;;;;;;;;5083434;28;20147;-69
2022/08/06 07:47:49;;;;;;;1.00;0.60;;;;;;;;;;5087371;28;20502;-69
2022/08/06 07:50:22;;;;;;;7.75;1.10;;;;;;;;;;5087638;28;20056;-70
2022/08/06 07:52:51;;;;;;;1.23;0.65;;;;;;;;;;5092955;28;20460;-70
2022/08/06 07:55:18;;;;;;;2.00;0.85;;;;;;;;;;5092346;28;20052;-71
2022/08/06 07:57:44;;;;;;;2.25;0.80;;;;;;;;;;5092897;28;20080;-70
2022/08/06 08:00:24;;;;;;;4.68;0.75;;;;;;;;;;5090753;28;20079;-70
2022/08/06 08:06:18;;;;;;;3.50;0.75;;;;;;;;;;5090196;28;20063;-70
2022/08/06 08:08:48;;;;;;;2.47;0.80;;;;;;;;;;5092505;28;20063;-70
2022/08/06 08:11:15;;;;;;;3.90;1.25;;;;;;;;;;5092286;28;20055;-67
2022/08/06 08:13:45;;;;;;;5.00;0.80;;;;;;;;;;5091754;28;20475;-70
2022/08/06 08:16:15;;;;;;;1.13;0.55;;;;;;;;;;5088283;28;20134;-70
2022/08/06 08:18:45;;;;;;;0.80;0.77;;;;;;;;;;5091878;28;20055;-70
2022/08/06 08:21:13;;;;;;;1.45;0.60;;;;;;;;;;5083311;28;20060;-70
2022/08/06 08:23:40;;;;;;;2.58;0.80;;;;;;;;;;5091828;28;20055;-70
2022/08/06 08:26:11;;;;;;;1.70;0.60;;;;;;;;;;5091159;28;20654;-70
2022/08/06 08:28:38;;;;;;;1.77;0.75;;;;;;;;;;5091271;28;20135;-70
2022/08/06 08:31:07;;;;;;;1.95;0.80;;;;;;;;;;5088505;28;20052;-70
2022/08/06 08:33:50;;;;;;;0.63;0.47;;;;;;;;;;5085928;28;20049;-71
2022/08/06 08:36:17;;;;;;;1.30;0.88;;;;;;;;;;5086251;28;20052;-71
2022/08/06 08:38:43;;;;;;;1.02;0.70;;;;;;;;;;5090246;28;20053;-71
2022/08/06 08:41:15;;;;;;;0.90;0.68;;;;;;;;;;5091063;27;20135;-70
2022/08/06 08:43:50;;;;;;;2.28;1.42;;;;;;;;;;5091303;28;20053;-70
2022/08/06 08:46:37;;;;;;;2.65;1.10;;;;;;;;;;5089146;28;20106;-71
2022/08/06 08:49:27;;;;;;;2.30;0.80;;;;;;;;;;5080917;28;20096;-70
2022/08/06 08:51:55;;;;;;;2.40;0.50;;;;;;;;;;5084678;28;20062;-70
2022/08/06 08:54:28;;;;;;;2.40;0.65;;;;;;;;;;5085095;28;20110;-70
2022/08/06 08:56:55;;;;;;;0.82;0.50;;;;;;;;;;5089012;28;20056;-70
2022/08/06 08:59:41;;;;;;;1.25;0.60;;;;;;;;;;5080623;28;20143;-70
2022/08/06 09:02:27;;;;;;;2.15;0.68;;;;;;;;;;5092168;28;20049;-73
2022/08/06 09:04:55;;;;;;;2.15;0.82;;;;;;;;;;5092594;28;20052;-73
2022/08/06 09:07:24;;;;;;;3.25;0.80;;;;;;;;;;5091406;28;20061;-74
2022/08/06 09:10:03;;;;;;;0.47;0.47;;;;;;;;;;5087661;28;20054;-73
2022/08/06 09:12:30;;;;;;;2.22;0.60;;;;;;;;;;5090434;28;20053;-73
2022/08/06 09:15:03;;;;;;;1.45;0.43;;;;;;;;;;5092600;28;20084;-73
2022/08/06 09:17:29;;;;;;;0.57;0.40;;;;;;;;;;5091668;28;20064;-73
2022/08/06 09:20:16;;;;;;;2.05;0.50;;;;;;;;;;5089893;28;20048;-73
2022/08/06 09:22:46;;;;;;;0.75;0.50;;;;;;;;;;5084554;28;20139;-73
2022/08/06 09:25:32;;;;;;;0.40;0.40;;;;;;;;;;5092062;28;20063;-74
2022/08/06 09:28:43;;;;;;;0.70;0.50;;;;;;;;;;5091056;28;20056;-74
2022/08/06 09:31:14;;;;;;;1.85;0.75;;;;;;;;;;5077100;28;20051;-73
2022/08/06 09:34:08;;;;;;;0.68;0.57;;;;;;;;;;5090535;28;20055;-73
2022/08/06 09:36:55;;;;;;;2.40;0.73;;;;;;;;;;5079998;28;20057;-74
2022/08/06 09:39:31;;;;;;;0.70;0.45;;;;;;;;;;5092544;28;20500;-73
2022/08/06 09:42:35;;;;;;;1.23;0.50;;;;;;;;;;5095741;28;20053;-73
2022/08/06 09:45:04;;;;;;;0.95;0.60;;;;;;;;;;5094577;28;20045;-73
2022/08/06 09:47:42;;;;;;;1.73;0.50;;;;;;;;;;5092499;28;20483;-74
2022/08/06 09:50:13;;;;;;;0.30;0.30;;;;;;;;;;5094910;28;20045;-74
2022/08/06 09:53:00;;;;;;;0.60;0.50;;;;;;;;;;5094808;28;20401;-73
2022/08/06 09:55:30;;;;;;;1.15;0.63;;;;;;;;;;5087193;28;20087;-74
2022/08/06 09:58:03;;;;;;;1.60;0.40;;;;;;;;;;5093776;28;20431;-73
2022/08/06 10:00:34;;;;;;;1.25;0.98;;;;;;;;;;5095569;28;20151;-74
2022/08/06 10:03:02;;;;;;;0.40;0.40;;;;;;;;;;5092819;28;20059;-74
2022/08/06 10:06:05;;;;;;;1.73;0.50;;;;;;;;;;5083409;28;20053;-74
2022/08/06 10:08:36;;;;;;;0.40;0.40;;;;;;;;;;5094460;28;20057;-74
2022/08/06 10:11:05;;;;;;;1.02;0.38;;;;;;;;;;5094038;28;20064;-73
2022/08/06 10:13:33;;;;;;;1.58;0.88;;;;;;;;;;5092998;28;20053;-73
2022/08/06 10:16:20;;;;;;;0.77;0.60;;;;;;;;;;5092967;28;20480;-73
2022/08/06 10:18:47;;;;;;;0.43;0.43;;;;;;;;;;5093296;28;20436;-73
2022/08/06 10:21:29;;;;;;;0.38;0.35;;;;;;;;;;5093671;28;20168;-72
2022/08/06 10:24:08;;;;;;;1.48;0.50;;;;;;;;;;5099825;28;20057;-73
2022/08/06 10:26:35;;;;;;;1.05;0.40;;;;;;;;;;5093787;28;20052;-73
2022/08/06 10:29:03;;;;;;;2.15;0.80;;;;;;;;;;5080636;28;20057;-73
2022/08/06 10:31:31;;;;;;;0.85;0.40;;;;;;;;;;5086134;28;20058;-73
2022/08/06 10:34:08;;;;;;;0.93;0.63;;;;;;;;;;5092044;28;20499;-73
2022/08/06 10:36:36;;;;;;;0.85;0.40;;;;;;;;;;5093650;28;20128;-73
2022/08/06 10:39:03;;;;;;;0.73;0.50;;;;;;;;;;5093752;28;20579;-73
2022/08/06 10:41:50;;;;;;;0.50;0.45;;;;;;;;;;5093266;28;20053;-73
2022/08/06 10:44:30;;;;;;;2.63;1.77;;;;;;;;;;5093016;28;20131;-73
2022/08/06 10:47:04;;;;;;;1.02;0.80;;;;;;;;;;5094349;28;20063;-73
2022/08/06 10:49:31;;;;;;;2.05;0.65;;;;;;;;;;5093221;28;20076;-72
2022/08/06 10:52:18;;;;;;;0.55;0.50;;;;;;;;;;5092180;28;20049;-73
2022/08/06 10:54:50;;;;;;;1.90;0.55;;;;;;;;;;5092548;28;20044;-73
2022/08/06 10:57:17;;;;;;;0.63;0.47;;;;;;;;;;5093363;28;20139;-73
2022/08/06 11:00:02;;;;;;;1.08;0.90;;;;;;;;;;5092027;28;20049;-73
2022/08/06 11:02:31;;;;;;;0.60;0.60;;;;;;;;;;5092719;28;20048;-72
2022/08/06 11:05:04;;;;;;;1.45;0.90;;;;;;;;;;5093026;27;20064;-73
2022/08/06 11:07:56;;;;;;;1.60;0.65;;;;;;;;;;5092647;28;21227;-72
2022/08/06 11:11:13;;;;;;;1.13;0.52;;;;;;;;;;5089648;28;20062;-69
2022/08/06 11:14:02;;;;;;;2.70;0.50;;;;;;;;;;5020772;28;20072;-72
2022/08/06 11:16:30;;;;;;;0.65;0.55;;;;;;;;;;5084453;28;20067;-71
2022/08/06 11:19:02;;;;;;;0.75;0.52;;;;;;;;;;5093264;28;20060;-70
2022/08/06 11:21:36;;;;;;;;;;;;;;;;;;5092830;28;20080;-70
2022/08/06 11:24:23;;;;;;;1.13;0.60;;;;;;;;;;5092846;27;20371;-71
2022/08/06 11:26:49;;;;;;;2.55;1.00;;;;;;;;;;5093036;28;20056;-71
2022/08/06 11:29:26;;;;;;;0.90;0.70;;;;;;;;;;5089682;28;20056;-72
2022/08/06 11:32:42;;;;;;;0.55;0.50;;;;;;;;;;5092568;27;20059;-71
2022/08/06 11:35:27;;;;;;;1.27;0.63;;;;;;;;;;5094938;28;20051;-72
2022/08/06 11:37:55;;;;;;;0.30;0.30;;;;;;;;;;5087896;28;20052;-71
2022/08/06 11:40:48;;;;;;;1.73;0.50;;;;;;;;;;5092566;28;20076;-73
2022/08/06 11:43:34;;;;;;;0.98;0.65;;;;;;;;;;5080103;28;20057;-72
2022/08/06 11:46:20;;;;;;;1.13;0.50;;;;;;;;;;5092565;27;20068;-71
2022/08/06 11:49:04;;;;;;;0.47;0.47;;;;;;;;;;5091421;28;20057;-72
2022/08/06 11:51:37;;;;;;;1.48;0.68;;;;;;;;;;5090062;28;20056;-72
2022/08/06 11:54:13;;;;;;;1.63;0.90;;;;;;;;;;5084175;28;20052;-73
2022/08/06 11:56:57;;;;;;;1.38;0.40;;;;;;;;;;5084654;28;20056;-73
2022/08/06 11:59:24;;;;;;;;;;;;;;;;;;5091302;28;20060;-72
2022/08/06 12:01:51;;;;;;;3.13;0.70;;;;;;;;;;5089944;28;43847;-73
2022/08/06 12:04:40;;;;;;;0.77;0.70;;;;;;;;;;5090908;28;20632;-73
2022/08/06 12:07:22;;;;;;;1.75;0.60;;;;;;;;;;5089811;28;20064;-72
2022/08/06 12:10:07;;;;;;;0.52;0.40;;;;;;;;;;5093172;28;20052;-73
2022/08/06 12:12:40;;;;;;;0.50;0.45;;;;;;;;;;5091670;27;20052;-72
2022/08/06 12:15:13;;;;;;;0.55;0.55;;;;;;;;;;5092021;28;20052;-73
2022/08/06 12:17:52;;;;;;;9.95;0.65;;;;;;;;;;5089876;28;20218;-71
2022/08/06 12:20:41;;;;;;;1.15;0.70;;;;;;;;;;5079240;28;20056;-73
2022/08/06 12:23:15;;;;;;;0.68;0.50;;;;;;;;;;5082948;28;20056;-72
2022/08/06 12:25:45;;;;;;;0.50;0.43;;;;;;;;;;5090356;28;20139;-73
2022/08/06 12:28:13;;;;;;;0.30;0.30;;;;;;;;;;5092534;28;20048;-72
2022/08/06 12:30:45;;;;;;;0.60;0.40;;;;;;;;;;5091090;28;20048;-72
2022/08/06 12:33:14;;;;;;;1.13;0.70;;;;;;;;;;5080189;28;20185;-72
2022/08/06 12:35:53;;;;;;;0.40;0.40;;;;;;;;;;5080328;28;20053;-72
2022/08/06 12:38:22;;;;;;;2.13;0.50;;;;;;;;;;5091884;28;20060;-72
2022/08/06 12:41:06;;;;;;;1.17;0.45;;;;;;;;;;5089954;28;20058;-72
2022/08/06 12:43:37;;;;;;;1.48;0.60;;;;;;;;;;5092198;28;20055;-72
2022/08/06 12:46:13;;;;;;;0.38;0.30;;;;;;;;;;5091721;28;20052;-73
2022/08/06 12:48:47;;;;;;;0.88;0.47;;;;;;;;;;5091839;28;20462;-72
2022/08/06 12:51:14;;;;;;;1.08;0.65;;;;;;;;;;5086465;28;20052;-73
2022/08/06 12:53:52;;;;;;;2.85;0.55;;;;;;;;;;5091757;28;20570;-71
2022/08/06 12:56:19;;;;;;;0.75;0.40;;;;;;;;;;5091027;28;20107;-72
2022/08/06 12:58:58;;;;;;;2.42;0.77;;;;;;;;;;5086295;28;20055;-72
2022/08/06 13:01:27;;;;;;;0.75;0.55;;;;;;;;;;5080653;28;20510;-72
2022/08/06 13:04:13;;;;;;;1.77;0.52;;;;;;;;;;5090128;28;20060;-72
2022/08/06 13:06:43;;;;;;;0.47;0.47;;;;;;;;;;5091187;28;20517;-72
2022/08/06 13:09:12;;;;;;;1.70;0.50;;;;;;;;;;5090473;28;20053;-72
2022/08/06 13:11:39;;;;;;;3.67;1.45;;;;;;;;;;5087616;28;20098;-72
2022/08/06 13:14:12;;;;;;;2.63;0.70;;;;;;;;;;5088265;28;20052;-71
2022/08/06 13:16:44;;;;;;;2.83;0.60;;;;;;;;;;5091488;28;20143;-71
2022/08/06 13:19:21;;;;;;;1.02;0.70;;;;;;;;;;5090996;28;20489;-69
2022/08/06 13:21:59;;;;;;;0.90;0.63;;;;;;;;;;5083076;28;20080;-70
2022/08/06 13:24:27;;;;;;;2.08;0.52;;;;;;;;;;5082313;28;20462;-70
2022/08/06 13:27:01;;;;;;;1.17;0.50;;;;;;;;;;5087338;28;20052;-69
2022/08/06 13:29:30;;;;;;;1.08;0.60;;;;;;;;;;5081182;28;20577;-70
2022/08/06 13:32:19;;;;;;;1.17;0.60;;;;;;;;;;5082724;28;20060;-70
2022/08/06 13:35:00;;;;;;;2.15;0.57;;;;;;;;;;5086629;28;20056;-71
2022/08/06 13:37:46;;;;;;;0.40;0.38;;;;;;;;;;5087300;28;20143;-70
2022/08/06 13:40:35;;;;;;;1.40;0.80;;;;;;;;;;5085898;28;20063;-70
2022/08/06 13:43:01;;;;;;;1.13;0.60;;;;;;;;;;5076994;28;20059;-70
2022/08/06 13:45:29;;;;;;;1.85;0.60;;;;;;;;;;5086025;28;20052;-70
2022/08/06 13:48:16;;;;;;;1.08;0.68;;;;;;;;;;5083534;28;20581;-70
2022/08/06 13:50:48;;;;;;;1.35;0.50;;;;;;;;;;5088726;28;20056;-70
2022/08/06 13:53:16;;;;;;;0.70;0.60;;;;;;;;;;5085562;28;20210;-71
2022/08/06 13:55:43;;;;;;;0.93;0.65;;;;;;;;;;5086668;28;20488;-72
2022/08/06 13:58:28;;;;;;;0.60;0.60;;;;;;;;;;5084035;28;20506;-72
2022/08/06 14:00:55;;;;;;;0.60;0.57;;;;;;;;;;5083646;28;20052;-70
2022/08/06 14:03:21;;;;;;;3.67;0.77;;;;;;;;;;5084505;28;20048;-70
2022/08/06 14:05:48;;;;;;;1.17;0.80;;;;;;;;;;5085927;28;20059;-70
2022/08/06 14:08:16;;;;;;;1.75;0.82;;;;;;;;;;5088566;28;20140;-70
2022/08/06 14:10:53;;;;;;;0.60;0.60;;;;;;;;;;5087671;28;20049;-71
2022/08/06 14:13:19;;;;;;;1.58;0.98;;;;;;;;;;5083222;28;20084;-70
2022/08/06 14:15:47;;;;;;;1.23;0.80;;;;;;;;;;5088495;28;20061;-70
2022/08/06 14:18:15;;;;;;;1.17;0.95;;;;;;;;;;5087185;28;20139;-71
2022/08/06 14:20:41;;;;;;;2.25;0.60;;;;;;;;;;5083116;28;20052;-71
2022/08/06 14:23:08;;;;;;;1.40;1.10;;;;;;;;;;5082280;28;20049;-71
2022/08/06 14:25:34;;;;;;;0.50;0.50;;;;;;;;;;5084148;28;20143;-70
2022/08/06 14:28:20;;;;;;;2.30;1.00;;;;;;;;;;5089534;28;20051;-71
2022/08/06 14:30:47;;;;;;;1.08;0.70;;;;;;;;;;5088352;28;20052;-71
2022/08/06 14:33:18;;;;;;;1.58;0.80;;;;;;;;;;5078825;28;20075;-70
2022/08/06 14:36:02;;;;;;;1.97;0.90;;;;;;;;;;5092690;28;20138;-70
2022/08/06 14:38:30;;;;;;;1.42;0.73;;;;;;;;;;5088104;28;20053;-69
2022/08/06 14:46:49;;;;;;;0.80;0.80;;;;;;;;;;5092554;28;20088;-69
2022/08/06 14:49:15;;;;;;;1.85;1.00;;;;;;;;;;5085689;28;20063;-69
2022/08/06 14:51:42;;;;;;;7.40;1.55;;;;;;;;;;5089269;28;20486;-69
2022/08/06 14:54:28;;;;;;;0.98;0.77;;;;;;;;;;5090141;28;20504;-70
2022/08/06 14:57:01;;;;;;;1.35;0.85;;;;;;;;;;5091983;28;20135;-69
2022/08/06 14:59:41;;;;;;;1.55;1.20;;;;;;;;;;5086657;28;20061;-69
2022/08/06 15:02:19;;;;;;;5.57;1.20;;;;;;;;;;5091487;28;20056;-70
2022/08/06 15:04:49;;;;;;;0.68;0.60;;;;;;;;;;5087605;28;20064;-70
2022/08/06 15:07:18;;;;;;;0.70;0.70;;;;;;;;;;5085746;28;20110;-70
2022/08/06 15:10:04;;;;;;;4.20;0.90;;;;;;;;;;5079752;28;20057;-70
2022/08/06 15:12:52;;;;;;;1.60;1.00;;;;;;;;;;5091441;28;20052;-71
2022/08/06 15:15:28;;;;;;;4.18;1.23;;;;;;;;;;5091281;28;20933;-73
2022/08/06 15:18:11;;;;;;;1.20;1.10;;;;;;;;;;5086754;28;20140;-71
2022/08/06 15:20:58;;;;;;;1.10;1.00;;;;;;;;;;5092446;28;20052;-73
2022/08/06 15:23:24;;;;;;;1.25;0.98;;;;;;;;;;5093081;28;20514;-71
2022/08/06 15:26:11;;;;;;;2.80;1.15;;;;;;;;;;5092800;28;20052;-72
2022/08/06 15:28:58;;;;;;;1.70;0.82;;;;;;;;;;5091489;28;20064;-72
2022/08/06 15:31:24;;;;;;;2.83;0.85;;;;;;;;;;5088826;28;20632;-72
2022/08/06 15:33:56;;;;;;;2.35;0.93;;;;;;;;;;5091643;28;20079;-73
2022/08/06 15:36:31;;;;;;;1.30;0.90;;;;;;;;;;5090250;28;20138;-72
2022/08/06 15:38:58;;;;;;;1.75;0.95;;;;;;;;;;5086516;28;20063;-73
2022/08/06 15:41:27;;;;;;;1.95;0.80;;;;;;;;;;5088485;28;21140;-73